West Richfield, Ohio
Current Conditions -  °F | °C
As of 11:51 AM on Wednesday 22 Oct 2014 (Local Time) from KCLE Reporting Station
Overcast Overcast  
Wind Chill: 43°   Ceiling: 1700
Heat Index: 48°   Visibility: 10mi
Dew Point: 42°   Wind: 12mph
Humidity: 80%   Direction: 10°N
Pressure: 30.3"   Gusts: NA
Location:  41.2393°N, 81.6428°W
Report Text: KCLE 221551Z 01010KT 10SM OVC017 09/06 A3030 RMK AO2 SLP262 T00890056 $
Loading
Personal Weather Stations






























Interactive Weather Map
Tropical Storm Tracking
New forecast layout! Learn more

10-Day Weather Forecast

Advertisements
Track Severe Weather on mobile